createdAt,value
2023-03-10T00:00:40.647Z,1.3
2023-03-10T00:01:43.945Z,1.3
2023-03-10T00:02:46.466Z,1.3
2023-03-10T00:03:49.256Z,1.3
2023-03-10T00:04:53.541Z,1.3
2023-03-10T00:05:57.026Z,1.2
2023-03-10T00:07:00.397Z,1.2
2023-03-10T00:08:03.841Z,1.3
2023-03-10T00:09:07.646Z,1.2
2023-03-10T00:10:10.950Z,1.3
2023-03-10T00:11:13.731Z,1.3
2023-03-10T00:12:16.443Z,1.3
2023-03-10T00:13:19.163Z,1.2
2023-03-10T00:14:21.887Z,1.2
2023-03-10T00:15:25.585Z,1.3
2023-03-10T00:16:28.232Z,1.3
2023-03-10T00:17:30.730Z,1.3
2023-03-10T00:18:34.018Z,1.3
2023-03-10T00:19:37.510Z,1.4
2023-03-10T00:20:40.222Z,1.4
2023-03-10T00:21:43.476Z,1.4
2023-03-10T00:22:46.591Z,1.4
2023-03-10T00:23:49.718Z,1.4
2023-03-10T00:24:53.551Z,1.4
2023-03-10T00:25:56.284Z,1.4
2023-03-10T00:26:59.171Z,1.4
2023-03-10T00:28:02.148Z,1.3
2023-03-10T00:29:05.886Z,1.3
2023-03-10T00:30:09.322Z,1.3
2023-03-10T00:31:12.691Z,1.3
2023-03-10T00:32:15.567Z,1.3
2023-03-10T00:33:18.989Z,1.3
2023-03-10T00:34:22.641Z,1.3
2023-03-10T00:35:25.706Z,1.4
2023-03-10T00:36:29.125Z,1.4
2023-03-10T00:37:32.524Z,1.4
2023-03-10T00:38:35.623Z,1.4
2023-03-10T00:39:39.013Z,1.4
2023-03-10T00:40:43.320Z,1.4
2023-03-10T00:41:46.620Z,1.4
2023-03-10T00:42:49.079Z,1.4
2023-03-10T00:43:52.196Z,1.4
2023-03-10T00:44:55.061Z,1.3
2023-03-10T00:45:59.120Z,1.4
2023-03-10T00:47:02.019Z,1.3
2023-03-10T00:48:04.460Z,1.4
2023-03-10T00:49:07.263Z,1.4
2023-03-10T00:50:09.803Z,1.4
2023-03-10T00:51:13.487Z,1.4
2023-03-10T00:52:17.140Z,1.4
2023-03-10T00:53:20.242Z,1.4
2023-03-10T00:54:23.367Z,1.4
2023-03-10T00:55:26.807Z,1.4
2023-03-10T00:56:30.666Z,1.4
2023-03-10T00:57:33.551Z,1.4
2023-03-10T00:58:36.533Z,1.4
2023-03-10T00:59:52.108Z,1.4
2023-03-10T01:00:55.828Z,1.4
2023-03-10T01:01:59.280Z,1.4
2023-03-10T01:03:01.910Z,1.4
2023-03-10T01:04:05.547Z,1.4
2023-03-10T01:05:08.829Z,1.4
2023-03-10T01:06:12.210Z,1.4
2023-03-10T01:07:14.992Z,1.4
2023-03-10T01:08:17.844Z,1.3
2023-03-10T01:09:20.579Z,1.3
2023-03-10T01:10:23.918Z,1.3
2023-03-10T01:11:27.590Z,1.3
2023-03-10T01:12:31.689Z,1.3
2023-03-10T01:13:34.485Z,1.3
2023-03-10T01:14:37.661Z,1.3
2023-03-10T01:15:40.674Z,1.4
2023-03-10T01:16:43.782Z,1.3
2023-03-10T01:17:47.231Z,1.3
2023-03-10T01:18:50.348Z,1.3
2023-03-10T01:19:52.634Z,1.3
2023-03-10T01:20:55.348Z,1.3
2023-03-10T01:21:58.748Z,1.3
2023-03-10T01:23:01.770Z,1.3
2023-03-10T01:24:05.192Z,1.3
2023-03-10T01:25:07.931Z,1.3
2023-03-10T01:26:11.001Z,1.3
2023-03-10T01:27:14.437Z,1.3
2023-03-10T01:28:18.537Z,1.3
2023-03-10T01:29:22.241Z,1.3
2023-03-10T01:30:25.275Z,1.3
2023-03-10T01:31:28.618Z,1.3
2023-03-10T01:32:32.305Z,1.3
2023-03-10T01:33:35.389Z,1.3
2023-03-10T01:34:39.024Z,1.3
2023-03-10T01:35:42.653Z,1.3
2023-03-10T01:36:46.064Z,1.2
2023-03-10T01:37:49.341Z,1.3
2023-03-10T01:38:52.340Z,1.3
2023-03-10T01:39:55.695Z,1.3
2023-03-10T01:40:58.401Z,1.3
2023-03-10T01:42:02.122Z,1.2
2023-03-10T01:43:05.679Z,1.2
2023-03-10T01:44:09.664Z,1.3
2023-03-10T01:45:13.381Z,1.2
2023-03-10T01:46:16.393Z,1.2
2023-03-10T01:47:19.434Z,1.2
2023-03-10T01:48:22.173Z,1.2
2023-03-10T01:49:25.581Z,1.2
2023-03-10T01:50:29.030Z,1.3
2023-03-10T01:51:32.848Z,1.3
2023-03-10T01:52:35.608Z,1.3
2023-03-10T01:53:38.022Z,1.3
2023-03-10T01:54:41.137Z,1.3
2023-03-10T01:55:44.244Z,1.3
2023-03-10T01:56:47.988Z,1.3
2023-03-10T01:57:51.322Z,1.3
2023-03-10T01:58:54.638Z,1.3
2023-03-10T01:59:58.601Z,1.3
2023-03-10T02:01:02.411Z,1.3
2023-03-10T02:02:05.580Z,1.3
2023-03-10T02:03:08.693Z,1.3
2023-03-10T02:04:11.675Z,1.3
2023-03-10T02:05:15.136Z,1.3
2023-03-10T02:06:18.541Z,1.4
2023-03-10T02:07:22.195Z,1.4
2023-03-10T02:08:25.565Z,1.3
2023-03-10T02:09:28.950Z,1.3
2023-03-10T02:10:32.358Z,1.3
2023-03-10T02:11:35.442Z,1.3
2023-03-10T02:12:38.803Z,1.3
2023-03-10T02:13:42.084Z,1.3
2023-03-10T02:14:45.611Z,1.3
2023-03-10T02:15:49.416Z,1.4
2023-03-10T02:16:52.480Z,1.3
2023-03-10T02:17:55.882Z,1.3
2023-03-10T02:18:58.366Z,1.3
2023-03-10T02:20:01.516Z,1.3
2023-03-10T02:21:04.897Z,1.3
2023-03-10T02:22:08.031Z,1.4
2023-03-10T02:23:10.820Z,1.4
2023-03-10T02:24:13.914Z,1.4
2023-03-10T02:25:16.628Z,1.3
2023-03-10T02:26:19.394Z,1.3
2023-03-10T02:27:22.104Z,1.2
2023-03-10T02:28:25.097Z,1.2
2023-03-10T02:29:28.137Z,1.3
2023-03-10T02:30:31.813Z,1.3
2023-03-10T02:31:36.100Z,1.3
2023-03-10T02:32:39.003Z,1.3
2023-03-10T02:33:42.272Z,1.2
2023-03-10T02:34:45.278Z,1.2
2023-03-10T02:35:48.984Z,1.2
2023-03-10T02:36:52.128Z,1.2
2023-03-10T02:37:55.036Z,1.2
2023-03-10T02:38:58.400Z,1.2
2023-03-10T02:40:02.088Z,1.2
2023-03-10T02:41:05.527Z,1.2
2023-03-10T02:42:08.991Z,1.2
2023-03-10T02:43:11.512Z,1.2
2023-03-10T02:44:14.236Z,1.2
2023-03-10T02:45:17.320Z,1.2
2023-03-10T02:46:21.176Z,1.2
2023-03-10T02:47:25.037Z,1.2
2023-03-10T02:48:30.374Z,1.2
2023-03-10T02:49:33.188Z,1.2
2023-03-10T02:50:36.002Z,1.2
2023-03-10T02:51:38.723Z,1.2
2023-03-10T02:52:41.443Z,1.2
2023-03-10T02:53:44.584Z,1.1
2023-03-10T02:54:47.778Z,1.1
2023-03-10T02:55:50.584Z,1.1
2023-03-10T02:56:53.935Z,1.1
2023-03-10T02:57:56.660Z,1.1
2023-03-10T02:58:59.659Z,1.1
2023-03-10T03:00:02.505Z,1.1
2023-03-10T03:01:06.237Z,1.2
2023-03-10T03:02:09.587Z,1.2
2023-03-10T03:03:13.410Z,1.2
2023-03-10T03:04:15.790Z,1.2
2023-03-10T03:05:18.556Z,1.2
2023-03-10T03:06:21.915Z,1.2
2023-03-10T03:07:24.721Z,1.2
2023-03-10T03:08:27.795Z,1.3
2023-03-10T03:09:31.237Z,1.2
2023-03-10T03:10:34.568Z,1.3
2023-03-10T03:11:38.019Z,1.3
2023-03-10T03:12:41.006Z,1.2
2023-03-10T03:13:43.831Z,1.2
2023-03-10T03:14:46.680Z,1.2
2023-03-10T03:15:49.988Z,1.2
2023-03-10T03:16:53.732Z,1.3
2023-03-10T03:17:57.764Z,1.2
2023-03-10T03:19:01.316Z,1.2
2023-03-10T03:20:04.296Z,1.2
2023-03-10T03:21:07.356Z,1.1
2023-03-10T03:22:10.695Z,1.1
2023-03-10T03:23:14.404Z,1.1
2023-03-10T03:24:17.526Z,1.1
2023-03-10T03:25:21.504Z,1.1
2023-03-10T03:26:25.296Z,1.1
2023-03-10T03:27:27.745Z,1.1
2023-03-10T03:28:30.834Z,1
2023-03-10T03:29:34.926Z,1
2023-03-10T03:30:37.371Z,1
2023-03-10T03:31:41.293Z,1
2023-03-10T03:32:44.408Z,1
2023-03-10T03:33:47.690Z,1
2023-03-10T03:34:51.561Z,1.1
2023-03-10T03:35:55.154Z,1
2023-03-10T03:36:57.677Z,1
2023-03-10T03:38:00.766Z,1
2023-03-10T03:39:03.781Z,1
2023-03-10T03:40:06.990Z,1
2023-03-10T03:41:09.508Z,1.1
2023-03-10T03:42:12.229Z,1.1
2023-03-10T03:43:14.778Z,1.1
2023-03-10T03:44:18.152Z,1
2023-03-10T03:45:21.701Z,1
2023-03-10T03:46:25.406Z,1
2023-03-10T03:47:28.027Z,0.9
2023-03-10T03:48:30.187Z,1
2023-03-10T03:49:33.743Z,0.9
2023-03-10T03:50:37.841Z,1
2023-03-10T03:51:40.631Z,1
2023-03-10T03:52:44.275Z,1
2023-03-10T03:53:47.106Z,1
2023-03-10T03:54:49.896Z,1
2023-03-10T03:55:52.914Z,1.1
2023-03-10T03:56:55.444Z,1.1
2023-03-10T03:57:58.811Z,1
2023-03-10T03:59:01.156Z,1
2023-03-10T04:00:04.083Z,1
2023-03-10T04:01:07.409Z,1
2023-03-10T04:02:10.823Z,1
2023-03-10T04:03:14.088Z,1
2023-03-10T04:04:16.991Z,1
2023-03-10T04:05:20.836Z,1
2023-03-10T04:06:24.742Z,0.9
2023-03-10T04:07:27.727Z,0.9
2023-03-10T04:08:30.530Z,1
2023-03-10T04:09:34.310Z,0.9
2023-03-10T04:10:37.620Z,0.9
2023-03-10T04:11:41.040Z,0.9
2023-03-10T04:12:44.099Z,0.9
2023-03-10T04:13:47.528Z,0.9
2023-03-10T04:14:51.267Z,0.9
2023-03-10T04:15:54.822Z,1
2023-03-10T04:16:58.585Z,0.9
2023-03-10T04:18:01.941Z,0.9
2023-03-10T04:19:04.908Z,0.9
2023-03-10T04:20:10.433Z,0.9
2023-03-10T04:21:14.182Z,0.9
2023-03-10T04:22:17.891Z,0.9
2023-03-10T04:23:21.257Z,0.9
2023-03-10T04:24:24.707Z,1
2023-03-10T04:25:27.433Z,1
2023-03-10T04:26:30.406Z,1
2023-03-10T04:27:33.565Z,1
2023-03-10T04:28:37.320Z,1.1
2023-03-10T04:29:40.836Z,1.1
2023-03-10T04:30:44.247Z,1.1
2023-03-10T04:32:06.924Z,1.1
2023-03-10T04:33:10.490Z,1
2023-03-10T04:34:13.227Z,1
2023-03-10T04:35:16.622Z,1.1
2023-03-10T04:36:20.284Z,1
2023-03-10T04:37:24.184Z,1
2023-03-10T04:38:27.238Z,1
2023-03-10T04:39:30.709Z,1
2023-03-10T04:40:34.126Z,1
2023-03-10T04:41:37.278Z,1
2023-03-10T04:42:40.360Z,1
2023-03-10T04:43:49.140Z,1
2023-03-10T04:44:51.940Z,0.9
2023-03-10T04:45:55.634Z,0.9
2023-03-10T04:46:58.894Z,0.9
2023-03-10T04:48:02.409Z,0.9
2023-03-10T04:49:05.807Z,0.9
2023-03-10T04:50:08.963Z,0.9
2023-03-10T04:51:12.228Z,0.9
2023-03-10T04:52:15.635Z,0.9
2023-03-10T04:53:19.463Z,0.8
2023-03-10T04:54:22.882Z,0.9
2023-03-10T04:55:25.394Z,0.9
2023-03-10T04:56:28.276Z,0.8
2023-03-10T04:57:31.359Z,0.8
2023-03-10T04:58:34.093Z,0.9
2023-03-10T04:59:37.362Z,0.8
2023-03-10T05:01:04.505Z,0.9
2023-03-10T05:02:07.993Z,0.9
2023-03-10T05:03:11.267Z,0.9
2023-03-10T05:04:14.671Z,0.9
2023-03-10T05:05:17.555Z,0.9
2023-03-10T05:06:20.931Z,1
2023-03-10T05:07:24.639Z,1
2023-03-10T05:08:29.197Z,0.9
2023-03-10T05:09:32.561Z,0.9
2023-03-10T05:10:36.207Z,1
2023-03-10T05:11:38.716Z,1
2023-03-10T05:12:41.452Z,1
2023-03-10T05:13:44.930Z,1
2023-03-10T05:14:48.013Z,0.9
2023-03-10T05:15:50.650Z,0.9
2023-03-10T05:16:52.702Z,1
2023-03-10T05:17:55.782Z,0.9
2023-03-10T05:18:58.963Z,0.9
2023-03-10T05:20:02.237Z,0.8
2023-03-10T05:21:05.313Z,0.8
2023-03-10T05:22:08.814Z,0.8
2023-03-10T05:23:11.963Z,0.8
2023-03-10T05:24:16.124Z,0.8
2023-03-10T05:25:19.558Z,0.9
2023-03-10T05:26:22.085Z,0.9
2023-03-10T05:27:25.190Z,0.9
2023-03-10T05:28:28.624Z,0.9
2023-03-10T05:29:31.704Z,0.9
2023-03-10T05:30:34.533Z,0.9
2023-03-10T05:31:37.135Z,1
2023-03-10T05:32:40.825Z,0.9
2023-03-10T05:33:43.989Z,0.9
2023-03-10T05:34:46.776Z,0.9
2023-03-10T05:35:50.187Z,1
2023-03-10T05:36:53.382Z,1
2023-03-10T05:37:57.034Z,1
2023-03-10T05:39:00.452Z,0.9
2023-03-10T05:40:04.514Z,0.8
2023-03-10T05:41:07.595Z,0.8
2023-03-10T05:42:10.995Z,0.8
2023-03-10T05:43:17.797Z,0.8
2023-03-10T05:44:20.962Z,0.8
2023-03-10T05:45:24.978Z,0.7
2023-03-10T05:46:28.311Z,0.7
2023-03-10T05:47:31.230Z,0.7
2023-03-10T05:48:34.694Z,0.7
2023-03-10T05:49:40.190Z,0.8
2023-03-10T05:50:42.782Z,0.8
2023-03-10T05:51:46.199Z,0.8
2023-03-10T05:52:49.006Z,0.8
2023-03-10T05:53:51.053Z,0.8
2023-03-10T05:54:53.889Z,0.8
2023-03-10T05:55:58.000Z,0.7
2023-03-10T05:57:00.807Z,0.7
2023-03-10T05:58:03.994Z,0.8
2023-03-10T05:59:06.581Z,0.8
2023-03-10T06:00:09.175Z,0.8
2023-03-10T06:01:12.071Z,0.8
2023-03-10T06:02:15.386Z,0.7
2023-03-10T06:03:19.324Z,0.7
2023-03-10T06:04:23.380Z,0.8
2023-03-10T06:05:26.251Z,0.7
2023-03-10T06:06:29.350Z,0.8
2023-03-10T06:07:32.639Z,0.8
2023-03-10T06:08:35.488Z,0.8
2023-03-10T06:09:38.940Z,0.8
2023-03-10T06:10:42.126Z,0.8
2023-03-10T06:11:45.696Z,0.7
2023-03-10T06:12:48.862Z,0.6
2023-03-10T06:13:51.996Z,0.7
2023-03-10T06:14:55.441Z,0.7
2023-03-10T06:15:59.532Z,0.7
2023-03-10T06:17:02.717Z,0.6
2023-03-10T06:18:05.921Z,0.6
2023-03-10T06:19:09.337Z,0.6
2023-03-10T06:20:12.470Z,0.7
2023-03-10T06:21:14.620Z,0.8
2023-03-10T06:22:17.415Z,0.8
2023-03-10T06:23:20.246Z,0.8
2023-03-10T06:24:23.425Z,0.8
2023-03-10T06:25:26.425Z,0.8
2023-03-10T06:26:29.945Z,0.7
2023-03-10T06:27:33.815Z,0.8
2023-03-10T06:28:36.951Z,0.8
2023-03-10T06:29:40.031Z,0.8
2023-03-10T06:30:43.117Z,0.8
2023-03-10T06:31:46.177Z,0.8
2023-03-10T06:32:49.624Z,0.9
2023-03-10T06:33:52.199Z,0.9
2023-03-10T06:34:55.190Z,0.9
2023-03-10T06:35:58.780Z,0.9
2023-03-10T06:37:01.935Z,0.9
2023-03-10T06:38:05.662Z,0.9
2023-03-10T06:39:08.956Z,0.8
2023-03-10T06:40:12.321Z,0.8
2023-03-10T06:41:15.749Z,0.7
2023-03-10T06:42:18.638Z,0.8
2023-03-10T06:43:22.862Z,0.8
2023-03-10T06:44:25.412Z,0.8
2023-03-10T06:45:28.161Z,0.9
2023-03-10T06:46:31.630Z,0.9
2023-03-10T06:47:34.997Z,0.9
2023-03-10T06:48:38.733Z,0.9
2023-03-10T06:49:41.326Z,1
2023-03-10T06:50:44.701Z,1
2023-03-10T06:51:47.430Z,1
2023-03-10T06:52:50.222Z,1
2023-03-10T06:53:53.339Z,1.1
2023-03-10T06:54:56.744Z,1.1
2023-03-10T06:55:59.796Z,1
2023-03-10T06:57:02.870Z,1.1
2023-03-10T06:58:06.014Z,1.1
2023-03-10T06:59:09.918Z,1.1
2023-03-10T07:00:12.830Z,1
2023-03-10T07:01:16.532Z,1
2023-03-10T07:02:18.446Z,1
2023-03-10T07:03:21.901Z,1
2023-03-10T07:04:24.322Z,0.9
2023-03-10T07:05:27.529Z,0.9
2023-03-10T07:06:30.264Z,0.9
2023-03-10T07:07:33.505Z,0.9
2023-03-10T07:08:36.562Z,0.9
2023-03-10T07:09:39.577Z,0.9
2023-03-10T07:10:42.104Z,0.9
2023-03-10T07:11:45.279Z,1
2023-03-10T07:12:49.004Z,1
2023-03-10T07:13:52.214Z,1
2023-03-10T07:14:56.448Z,1
2023-03-10T07:15:59.161Z,1.1
2023-03-10T07:17:02.931Z,1
2023-03-10T07:18:06.051Z,1.1
2023-03-10T07:19:09.372Z,1.1
2023-03-10T07:20:12.857Z,1.1
2023-03-10T07:21:15.651Z,1.1
2023-03-10T07:22:19.291Z,1
2023-03-10T07:23:22.967Z,1
2023-03-10T07:24:26.868Z,1.1
2023-03-10T07:25:29.844Z,1.1
2023-03-10T07:26:33.598Z,1
2023-03-10T07:27:37.081Z,1
2023-03-10T07:28:40.160Z,1
2023-03-10T07:29:43.373Z,1.1
2023-03-10T07:30:47.849Z,1.1
2023-03-10T07:31:50.052Z,1.1
2023-03-10T07:32:53.316Z,1.2
2023-03-10T07:33:55.955Z,1.2
2023-03-10T07:34:59.008Z,1.1
2023-03-10T07:36:02.232Z,1.2
2023-03-10T07:37:05.063Z,1.2
2023-03-10T07:38:08.883Z,1.2
2023-03-10T07:39:11.971Z,1.2
2023-03-10T07:40:15.047Z,1.2
2023-03-10T07:41:18.914Z,1.2
2023-03-10T07:42:21.773Z,1.2
2023-03-10T07:43:26.018Z,1.2
2023-03-10T07:44:28.922Z,1.2
2023-03-10T07:45:32.575Z,1.2
2023-03-10T07:46:36.879Z,1.2
2023-03-10T07:47:40.357Z,1.3
2023-03-10T07:48:43.208Z,1.4
2023-03-10T07:49:46.058Z,1.4
2023-03-10T07:50:49.038Z,1.4
2023-03-10T07:51:52.789Z,1.5
2023-03-10T07:52:55.220Z,1.5
2023-03-10T07:53:57.971Z,1.5
2023-03-10T07:55:01.675Z,1.5
2023-03-10T07:56:04.785Z,1.5
2023-03-10T07:57:07.775Z,1.5
2023-03-10T07:58:11.684Z,1.6
2023-03-10T07:59:14.958Z,1.5
2023-03-10T08:00:17.530Z,1.6
2023-03-10T08:01:21.622Z,1.6
2023-03-10T08:02:25.785Z,1.6
2023-03-10T08:03:29.019Z,1.7
2023-03-10T08:04:33.489Z,1.7
2023-03-10T08:05:37.752Z,1.7
2023-03-10T08:06:42.015Z,1.7
2023-03-10T08:07:44.754Z,1.8
2023-03-10T08:08:48.105Z,1.8
2023-03-10T08:09:51.761Z,1.8
2023-03-10T08:10:54.914Z,1.9
2023-03-10T08:11:58.010Z,1.9
2023-03-10T08:13:01.349Z,1.9
2023-03-10T08:14:04.739Z,1.9
2023-03-10T08:15:08.225Z,1.9
2023-03-10T08:16:12.004Z,2
2023-03-10T08:17:15.015Z,1.9
2023-03-10T08:18:19.134Z,2
2023-03-10T08:19:22.503Z,1.9
2023-03-10T08:20:25.392Z,1.8
2023-03-10T08:21:28.792Z,1.9
2023-03-10T08:22:32.119Z,1.9
2023-03-10T08:23:37.833Z,1.8
2023-03-10T08:24:41.532Z,1.8
2023-03-10T08:25:44.406Z,1.9
2023-03-10T08:26:48.141Z,1.8
2023-03-10T08:27:51.205Z,1.8
2023-03-10T08:28:54.402Z,1.8
2023-03-10T08:29:57.761Z,1.8
2023-03-10T08:31:07.080Z,1.9
2023-03-10T08:32:10.870Z,1.9
2023-03-10T08:33:14.808Z,1.9
2023-03-10T08:34:18.931Z,1.9
2023-03-10T08:35:22.412Z,1.9
2023-03-10T08:36:26.096Z,2
2023-03-10T08:37:29.470Z,2
2023-03-10T08:38:32.336Z,2
2023-03-10T08:39:35.394Z,1.9
2023-03-10T08:40:39.040Z,1.9
2023-03-10T08:41:42.701Z,1.9
2023-03-10T08:42:49.802Z,1.9
2023-03-10T08:43:52.874Z,2
2023-03-10T08:44:56.222Z,1.9
2023-03-10T08:45:59.619Z,1.8
2023-03-10T08:47:03.493Z,1.8
2023-03-10T08:48:06.324Z,1.9
2023-03-10T08:49:10.231Z,1.9
2023-03-10T08:50:14.487Z,1.9
2023-03-10T08:51:18.727Z,2
2023-03-10T08:52:21.526Z,1.9
2023-03-10T08:53:24.868Z,1.9
2023-03-10T08:54:27.313Z,2
2023-03-10T08:55:30.706Z,2
2023-03-10T08:56:33.727Z,2
2023-03-10T08:57:36.748Z,1.9
2023-03-10T08:58:40.642Z,1.9
2023-03-10T08:59:43.760Z,1.9
2023-03-10T09:00:46.869Z,1.9
2023-03-10T09:01:50.608Z,1.9
2023-03-10T09:02:54.477Z,2
2023-03-10T09:03:58.239Z,2
2023-03-10T09:05:02.218Z,2
2023-03-10T09:06:06.050Z,1.9
2023-03-10T09:07:09.418Z,2
2023-03-10T09:08:12.489Z,2
2023-03-10T09:09:15.582Z,2
2023-03-10T09:10:18.916Z,2
2023-03-10T09:11:22.696Z,1.8
2023-03-10T09:12:39.580Z,1.8
2023-03-10T09:13:43.252Z,1.8
2023-03-10T09:14:46.131Z,1.9
2023-03-10T09:15:49.122Z,1.9
2023-03-10T09:16:52.137Z,1.9
2023-03-10T09:17:54.527Z,1.9
2023-03-10T09:18:57.962Z,1.9
2023-03-10T09:20:01.414Z,1.9
2023-03-10T09:21:04.539Z,1.9
2023-03-10T09:22:07.936Z,1.9
2023-03-10T09:23:11.308Z,1.9
2023-03-10T09:24:14.439Z,1.9
2023-03-10T09:25:17.871Z,1.9
2023-03-10T09:26:20.317Z,1.9
2023-03-10T09:27:22.852Z,1.9
2023-03-10T09:28:25.881Z,1.9
2023-03-10T09:30:48.697Z,1.9
2023-03-10T09:31:53.297Z,2
2023-03-10T09:32:56.746Z,1.9
2023-03-10T09:34:00.593Z,1.9
2023-03-10T09:35:03.654Z,1.9
2023-03-10T09:36:10.005Z,1.9
2023-03-10T09:37:14.196Z,1.8
2023-03-10T09:38:16.937Z,1.9
2023-03-10T09:39:19.477Z,1.9
2023-03-10T09:40:22.406Z,1.9
2023-03-10T09:41:25.839Z,1.9
2023-03-10T09:42:39.716Z,1.9
2023-03-10T09:43:42.550Z,2
2023-03-10T09:44:45.917Z,2
2023-03-10T09:45:49.923Z,2
2023-03-10T09:46:52.800Z,2
2023-03-10T09:47:56.146Z,2
2023-03-10T09:48:59.153Z,2
2023-03-10T09:50:01.846Z,2
2023-03-10T09:51:04.955Z,2.1
2023-03-10T09:52:08.779Z,2.1
2023-03-10T09:53:12.860Z,2.1
2023-03-10T09:54:16.016Z,2.2
2023-03-10T09:55:18.823Z,2.2
2023-03-10T09:56:22.284Z,2.1
2023-03-10T09:57:26.309Z,2
2023-03-10T09:58:30.032Z,2
2023-03-10T09:59:33.102Z,2
2023-03-10T10:00:36.288Z,2
2023-03-10T10:01:38.880Z,2
2023-03-10T10:02:42.895Z,2.1
2023-03-10T10:03:55.263Z,2.1
2023-03-10T10:04:58.763Z,2
2023-03-10T10:06:02.971Z,2
2023-03-10T10:07:05.960Z,2
2023-03-10T10:08:09.510Z,2.1
2023-03-10T10:09:13.585Z,2.1
2023-03-10T10:10:16.693Z,2.1
2023-03-10T10:11:19.503Z,2.1
2023-03-10T10:12:22.321Z,2.1
2023-03-10T10:13:25.689Z,2.1
2023-03-10T10:14:33.236Z,2
2023-03-10T10:15:37.604Z,1.9
2023-03-10T10:16:41.307Z,1.9
2023-03-10T10:18:24.073Z,2
2023-03-10T10:19:29.893Z,2
2023-03-10T10:20:33.010Z,2.1
2023-03-10T10:21:44.512Z,2.1
2023-03-10T10:22:47.518Z,2.1
2023-03-10T10:23:51.412Z,2.1
2023-03-10T10:24:55.208Z,2.1
2023-03-10T10:25:59.133Z,2.2
2023-03-10T10:27:05.397Z,2.1
2023-03-10T10:28:08.846Z,2.1
2023-03-10T10:29:12.849Z,2
2023-03-10T10:30:16.239Z,2
2023-03-10T10:31:20.019Z,2
2023-03-10T10:32:24.254Z,2
2023-03-10T10:33:26.710Z,2
2023-03-10T10:34:29.246Z,2.1
2023-03-10T10:35:32.920Z,2.1
2023-03-10T10:36:36.027Z,2.1
2023-03-10T10:37:42.793Z,2.1
2023-03-10T10:38:46.524Z,2.2
2023-03-10T10:39:49.728Z,2.2
2023-03-10T10:40:53.876Z,2
2023-03-10T10:41:57.324Z,2
2023-03-10T10:43:00.113Z,2
2023-03-10T10:44:03.539Z,2
2023-03-10T10:45:07.026Z,1.9
2023-03-10T10:46:10.307Z,1.9
2023-03-10T10:47:13.481Z,2
2023-03-10T10:48:17.133Z,2
2023-03-10T10:49:20.262Z,2
2023-03-10T10:50:24.343Z,2
2023-03-10T10:51:28.034Z,2
2023-03-10T10:52:30.867Z,2
2023-03-10T10:53:34.172Z,2.1
2023-03-10T10:54:37.428Z,2
2023-03-10T10:55:40.236Z,2.1
2023-03-10T10:56:44.312Z,2.1
2023-03-10T10:57:47.108Z,2.1
2023-03-10T10:58:50.720Z,2.1
2023-03-10T10:59:53.904Z,2.1
2023-03-10T11:00:58.014Z,2.1
2023-03-10T11:02:01.806Z,2.1
2023-03-10T11:03:05.951Z,2.1
2023-03-10T11:04:09.381Z,2
2023-03-10T11:05:12.734Z,2
2023-03-10T11:06:16.130Z,2
2023-03-10T11:07:19.384Z,2
2023-03-10T11:08:22.618Z,2
2023-03-10T11:09:26.544Z,2
2023-03-10T11:10:29.936Z,2
2023-03-10T11:11:33.457Z,2
2023-03-10T11:12:36.999Z,2
2023-03-10T11:13:39.982Z,2
2023-03-10T11:14:42.792Z,2
2023-03-10T11:15:46.491Z,2
2023-03-10T11:16:49.943Z,2
2023-03-10T11:17:54.013Z,2
2023-03-10T11:18:56.459Z,2
2023-03-10T11:19:59.885Z,2
2023-03-10T11:21:03.171Z,2
2023-03-10T11:22:05.768Z,1.9
2023-03-10T11:23:09.130Z,1.9
2023-03-10T11:24:12.868Z,1.8
2023-03-10T11:25:15.964Z,1.8
2023-03-10T11:26:19.643Z,1.8
2023-03-10T11:27:23.176Z,1.7
2023-03-10T11:28:26.972Z,1.7
2023-03-10T11:29:30.391Z,1.6
2023-03-10T11:30:33.186Z,1.6
2023-03-10T11:31:37.146Z,1.6
2023-03-10T11:32:41.077Z,1.6
2023-03-10T11:33:44.322Z,1.5
2023-03-10T11:34:47.472Z,1.5
2023-03-10T11:35:51.490Z,1.5
2023-03-10T11:36:58.755Z,1.6
2023-03-10T11:38:01.533Z,1.6
2023-03-10T11:39:04.680Z,1.6
2023-03-10T11:40:08.299Z,1.7
2023-03-10T11:41:11.702Z,1.6
2023-03-10T11:42:14.754Z,1.7
2023-03-10T11:43:18.467Z,1.7
2023-03-10T11:44:22.211Z,1.8
2023-03-10T11:45:25.223Z,1.8
2023-03-10T11:46:29.397Z,1.9
2023-03-10T11:47:32.574Z,1.9
2023-03-10T11:48:35.410Z,1.9
2023-03-10T11:49:38.565Z,1.9
2023-03-10T11:50:41.647Z,1.8
2023-03-10T11:51:45.153Z,1.7
2023-03-10T11:52:47.713Z,1.7
2023-03-10T11:53:50.756Z,1.7
2023-03-10T11:54:54.161Z,1.7
2023-03-10T11:55:58.169Z,1.7
2023-03-10T11:57:01.532Z,1.8
2023-03-10T11:58:04.685Z,1.8
2023-03-10T11:59:08.588Z,1.8
2023-03-10T12:00:12.443Z,1.8
2023-03-10T12:01:16.474Z,1.8
2023-03-10T12:02:19.828Z,1.9
2023-03-10T12:03:23.175Z,1.9
2023-03-10T12:04:26.468Z,2
2023-03-10T12:05:29.766Z,2
2023-03-10T12:06:32.613Z,2
2023-03-10T12:07:36.247Z,2
2023-03-10T12:08:39.451Z,1.9
2023-03-10T12:09:42.556Z,2
2023-03-10T12:10:45.574Z,2
2023-03-10T12:11:48.975Z,2
2023-03-10T12:12:52.347Z,1.9
2023-03-10T12:13:55.060Z,2
2023-03-10T12:14:58.256Z,2
2023-03-10T12:16:02.493Z,2
2023-03-10T12:17:05.976Z,2.1
2023-03-10T12:18:09.459Z,2.1
2023-03-10T12:19:11.893Z,2.1
2023-03-10T12:20:15.234Z,2.2
2023-03-10T12:21:19.569Z,2.2
2023-03-10T12:22:22.324Z,2.2
2023-03-10T12:23:25.222Z,2.2
2023-03-10T12:24:28.648Z,2.3
2023-03-10T12:25:31.483Z,2.2
2023-03-10T12:26:34.525Z,2.2
2023-03-10T12:27:37.464Z,2.1
2023-03-10T12:28:40.262Z,2.2
2023-03-10T12:29:43.380Z,2.3
2023-03-10T12:30:47.118Z,2.2
2023-03-10T12:31:51.675Z,2.2
2023-03-10T12:32:55.443Z,2.1
2023-03-10T12:33:58.885Z,2.2
2023-03-10T12:35:01.855Z,2.3
2023-03-10T12:36:05.435Z,2.3
2023-03-10T12:37:09.229Z,2.4
2023-03-10T12:38:12.334Z,2.4
2023-03-10T12:39:16.180Z,2.5
2023-03-10T12:40:19.172Z,2.5
2023-03-10T12:41:22.233Z,2.4
2023-03-10T12:42:27.784Z,2.5
2023-03-10T12:43:31.067Z,2.5
2023-03-10T12:44:34.145Z,2.5
2023-03-10T12:45:37.216Z,2.5
2023-03-10T12:46:41.519Z,2.5
2023-03-10T12:47:44.918Z,2.6
2023-03-10T12:48:48.650Z,2.6
2023-03-10T12:49:51.723Z,2.6
2023-03-10T12:50:54.793Z,2.7
2023-03-10T12:51:58.623Z,2.8
2023-03-10T12:53:01.383Z,2.8
2023-03-10T12:54:04.754Z,2.8
2023-03-10T12:55:08.196Z,2.8
2023-03-10T12:56:11.296Z,2.8
2023-03-10T12:57:18.372Z,2.8
2023-03-10T12:58:21.847Z,2.8
2023-03-10T12:59:24.664Z,2.8
2023-03-10T13:00:27.437Z,2.8
2023-03-10T13:01:30.698Z,2.8
2023-03-10T13:02:35.950Z,2.7
2023-03-10T13:03:40.376Z,2.7
2023-03-10T13:04:44.194Z,2.7
2023-03-10T13:05:47.589Z,2.8
2023-03-10T13:06:51.057Z,2.8
2023-03-10T13:07:54.812Z,2.8
2023-03-10T13:08:57.798Z,2.8
2023-03-10T13:10:00.936Z,2.8
2023-03-10T13:11:03.448Z,2.7
2023-03-10T13:12:06.583Z,2.7
2023-03-10T13:13:10.297Z,2.7
2023-03-10T13:14:13.990Z,2.7
2023-03-10T13:15:16.795Z,2.7
2023-03-10T13:16:20.711Z,2.7
2023-03-10T13:17:24.322Z,2.7
2023-03-10T13:18:27.200Z,2.6
2023-03-10T13:19:31.097Z,2.6
2023-03-10T13:20:34.202Z,2.7
2023-03-10T13:21:38.219Z,2.7
2023-03-10T13:22:41.611Z,2.6
2023-03-10T13:23:45.029Z,2.7
2023-03-10T13:24:47.838Z,2.7
2023-03-10T13:25:51.208Z,2.7
2023-03-10T13:26:53.915Z,2.7
2023-03-10T13:27:56.634Z,2.7
2023-03-10T13:28:59.909Z,2.7
2023-03-10T13:30:02.951Z,2.7
2023-03-10T13:31:06.334Z,2.6
2023-03-10T13:32:10.720Z,2.7
2023-03-10T13:33:14.089Z,2.6
2023-03-10T13:34:17.878Z,2.6
2023-03-10T13:35:21.688Z,2.5
2023-03-10T13:36:24.776Z,2.5
2023-03-10T13:37:27.885Z,2.5
2023-03-10T13:38:31.058Z,2.5
2023-03-10T13:39:34.171Z,2.5
2023-03-10T13:40:37.551Z,2.6
2023-03-10T13:41:40.890Z,2.6
2023-03-10T13:42:46.273Z,2.6
2023-03-10T13:43:49.813Z,2.7
2023-03-10T13:44:53.283Z,2.6
2023-03-10T13:45:57.373Z,2.6
2023-03-10T13:47:01.017Z,2.6
2023-03-10T13:48:03.565Z,2.6
2023-03-10T13:49:07.228Z,2.6
2023-03-10T13:50:10.810Z,2.5
2023-03-10T13:51:14.991Z,2.5
2023-03-10T13:52:19.915Z,2.5
2023-03-10T13:53:23.273Z,2.5
2023-03-10T13:54:26.280Z,2.5
2023-03-10T13:55:29.610Z,2.5
2023-03-10T13:56:33.371Z,2.5
2023-03-10T13:57:37.091Z,2.6
2023-03-10T13:58:40.248Z,2.5
2023-03-10T13:59:43.081Z,2.5
2023-03-10T14:00:46.887Z,2.5
2023-03-10T14:01:50.020Z,2.3
2023-03-10T14:02:52.778Z,2.4
2023-03-10T14:03:56.453Z,2.4
2023-03-10T14:04:59.628Z,2.4
2023-03-10T14:06:03.364Z,2.4
2023-03-10T14:07:07.232Z,2.5
2023-03-10T14:08:10.301Z,2.4
2023-03-10T14:09:13.757Z,2.3
2023-03-10T14:10:17.083Z,2.3
2023-03-10T14:11:20.093Z,2.3
2023-03-10T14:12:23.520Z,2.3
2023-03-10T14:13:26.524Z,2.3
2023-03-10T14:14:29.548Z,2.3
2023-03-10T14:15:32.730Z,2.3
2023-03-10T14:16:36.139Z,2.3
2023-03-10T14:17:39.175Z,2.2
2023-03-10T14:18:42.655Z,2.2
2023-03-10T14:19:45.744Z,2.2
2023-03-10T14:20:49.562Z,2.2
2023-03-10T14:22:04.200Z,2.2
2023-03-10T14:23:09.045Z,2.2
2023-03-10T14:24:12.442Z,2.1
2023-03-10T14:25:15.481Z,2.1
2023-03-10T14:26:19.174Z,2.2
2023-03-10T14:27:22.276Z,2.2
2023-03-10T14:28:25.363Z,2.2
2023-03-10T14:29:28.088Z,2.2
2023-03-10T14:30:32.740Z,2.2
2023-03-10T14:31:37.953Z,2.3
2023-03-10T14:32:41.413Z,2.3
2023-03-10T14:33:44.637Z,2.3
2023-03-10T14:34:48.338Z,2.3
2023-03-10T14:35:51.993Z,2.3
2023-03-10T14:36:55.783Z,2.4
2023-03-10T14:37:59.471Z,2.4
2023-03-10T14:39:02.981Z,2.3
2023-03-10T14:40:06.414Z,2.3
2023-03-10T14:41:09.861Z,2.3
2023-03-10T14:42:13.472Z,2.3
2023-03-10T14:43:16.315Z,2.4
2023-03-10T14:44:19.378Z,2.4
2023-03-10T14:45:22.238Z,2.4
2023-03-10T14:46:26.738Z,2.3
2023-03-10T14:47:31.436Z,2.3